createdAt,value
2023-04-11T00:01:24.996Z,1.70
2023-04-11T00:03:53.163Z,1.50
2023-04-11T00:06:20.448Z,1.30
2023-04-11T00:08:48.033Z,1.40
2023-04-11T00:11:14.994Z,1.60
2023-04-11T00:13:43.149Z,1.50
2023-04-11T00:16:10.409Z,1.40
2023-04-11T00:18:39.437Z,1.50
2023-04-11T00:21:08.360Z,1.20
2023-04-11T00:23:35.440Z,1.10
2023-04-11T00:26:02.961Z,1.30
2023-04-11T00:28:29.901Z,1.40
2023-04-11T00:30:56.644Z,1.40
2023-04-11T00:33:23.612Z,1.40
2023-04-11T00:35:50.676Z,1.30
2023-04-11T00:38:17.661Z,1.30
2023-04-11T00:40:44.520Z,1.50
2023-04-11T00:43:11.314Z,1.40
2023-04-11T00:45:38.794Z,1.30
2023-04-11T00:48:06.145Z,1.30
2023-04-11T00:50:33.371Z,1.30
2023-04-11T00:53:00.235Z,1.30
2023-04-11T00:55:27.934Z,1.30
2023-04-11T00:57:55.480Z,1.30
2023-04-11T01:00:23.266Z,1.30
2023-04-11T01:02:50.220Z,1.20
2023-04-11T01:05:17.546Z,1.30
2023-04-11T01:07:48.827Z,1.40
2023-04-11T01:10:16.577Z,1.30
2023-04-11T01:12:45.460Z,1.00
2023-04-11T01:15:12.321Z,1.00
2023-04-11T01:17:41.687Z,0.90
2023-04-11T01:20:09.536Z,0.90
2023-04-11T01:22:38.379Z,1.00
2023-04-11T01:25:05.444Z,1.00
2023-04-11T01:27:34.151Z,1.10
2023-04-11T01:30:01.646Z,1.20
2023-04-11T01:32:28.509Z,1.30
2023-04-11T01:34:57.555Z,1.30
2023-04-11T01:37:25.184Z,1.10
2023-04-11T01:39:52.159Z,1.00
2023-04-11T01:42:20.768Z,0.90
2023-04-11T01:44:48.636Z,0.70
2023-04-11T01:47:15.631Z,0.80
2023-04-11T01:49:42.942Z,0.80
2023-04-11T01:52:09.957Z,0.90
2023-04-11T01:54:36.777Z,1.10
2023-04-11T01:57:04.336Z,1.30
2023-04-11T01:59:31.128Z,1.40
2023-04-11T02:01:58.223Z,1.40
2023-04-11T02:04:25.187Z,1.20
2023-04-11T02:06:52.104Z,0.80
2023-04-11T02:09:18.862Z,0.70
2023-04-11T02:11:45.847Z,0.90
2023-04-11T02:14:14.507Z,0.80
2023-04-11T02:16:55.091Z,0.80
2023-04-11T02:19:23.484Z,0.90
2023-04-11T02:21:50.364Z,0.80
2023-04-11T02:24:17.129Z,0.80
2023-04-11T02:26:43.977Z,0.90
2023-04-11T02:29:11.032Z,1.10
2023-04-11T02:31:38.476Z,1.20
2023-04-11T02:34:05.371Z,1.10
2023-04-11T02:36:32.125Z,1.10
2023-04-11T02:38:58.888Z,0.90
2023-04-11T02:41:25.688Z,1.10
2023-04-11T02:43:52.457Z,1.20
2023-04-11T02:46:19.221Z,1.30
2023-04-11T02:48:46.045Z,1.40
2023-04-11T02:51:12.935Z,1.40
2023-04-11T02:53:39.782Z,0.90
2023-04-11T02:56:10.727Z,0.70
2023-04-11T02:58:41.932Z,0.80
2023-04-11T03:01:11.771Z,1.00
2023-04-11T03:03:38.994Z,1.20
2023-04-11T03:06:09.103Z,0.90
2023-04-11T03:08:37.277Z,0.80
2023-04-11T03:11:04.851Z,0.90
2023-04-11T03:13:31.720Z,0.80
2023-04-11T03:15:58.719Z,0.90
2023-04-11T03:18:25.756Z,1.00
2023-04-11T03:20:52.593Z,0.90
2023-04-11T03:23:19.362Z,0.80
2023-04-11T03:25:47.975Z,0.80
2023-04-11T03:28:15.719Z,0.90
2023-04-11T03:30:42.887Z,0.90
2023-04-11T03:33:09.970Z,1.00
2023-04-11T03:35:37.136Z,1.10
2023-04-11T03:38:04.246Z,1.20
2023-04-11T03:40:31.020Z,1.20
2023-04-11T03:42:58.017Z,1.30
2023-04-11T03:45:24.840Z,1.40
2023-04-11T03:47:51.669Z,1.50
2023-04-11T03:50:18.518Z,1.60
2023-04-11T03:52:45.316Z,1.60
2023-04-11T03:55:12.199Z,1.60
2023-04-11T03:57:39.049Z,1.60
2023-04-11T04:00:06.628Z,1.60
2023-04-11T04:02:33.737Z,1.50
2023-04-11T04:05:01.537Z,1.50
2023-04-11T04:07:28.613Z,1.50
2023-04-11T04:09:55.415Z,1.50
2023-04-11T04:12:22.234Z,1.30
2023-04-11T04:14:49.421Z,1.00
2023-04-11T04:17:16.666Z,0.90
2023-04-11T04:19:44.324Z,1.00
2023-04-11T04:22:12.077Z,1.20
2023-04-11T04:24:39.692Z,1.10
2023-04-11T04:27:09.645Z,1.00
2023-04-11T04:29:46.554Z,1.00
2023-04-11T04:32:20.719Z,1.00
2023-04-11T04:34:55.126Z,1.00
2023-04-11T04:37:27.184Z,1.20
2023-04-11T04:39:56.239Z,1.30
2023-04-11T04:42:24.773Z,1.30
2023-04-11T04:44:52.748Z,1.30
2023-04-11T04:47:22.399Z,1.40
2023-04-11T04:49:49.217Z,1.50
2023-04-11T04:52:16.196Z,1.10
2023-04-11T04:54:43.074Z,0.90
2023-04-11T04:57:09.892Z,0.90
2023-04-11T04:59:36.731Z,0.90
2023-04-11T05:02:03.851Z,1.00
2023-04-11T05:04:31.892Z,1.20
2023-04-11T05:06:59.170Z,1.40
2023-04-11T05:09:26.280Z,1.40
2023-04-11T05:11:53.322Z,1.50
2023-04-11T05:14:20.273Z,1.60
2023-04-11T05:16:47.059Z,1.60
2023-04-11T05:19:13.894Z,1.60
2023-04-11T05:21:40.889Z,1.40
2023-04-11T05:24:07.816Z,1.20
2023-04-11T05:26:34.586Z,1.30
2023-04-11T05:29:02.014Z,1.40
2023-04-11T05:31:29.100Z,1.60
2023-04-11T05:33:56.858Z,1.70
2023-04-11T05:36:24.045Z,1.90
2023-04-11T05:38:50.798Z,2.00
2023-04-11T05:41:17.810Z,2.10
2023-04-11T05:43:44.577Z,2.00
2023-04-11T05:46:12.752Z,1.90
2023-04-11T05:48:39.838Z,2.10
2023-04-11T05:51:07.766Z,2.20
2023-04-11T05:53:34.735Z,2.10
2023-04-11T05:56:01.766Z,2.20
2023-04-11T05:58:29.900Z,2.40
2023-04-11T06:00:59.463Z,2.60
2023-04-11T06:03:26.886Z,2.80
2023-04-11T06:05:54.354Z,2.90
2023-04-11T06:08:21.577Z,3.10
2023-04-11T06:10:48.434Z,3.20
2023-04-11T06:13:15.331Z,3.40
2023-04-11T06:15:42.207Z,3.50
2023-04-11T06:18:09.053Z,3.70
2023-04-11T06:20:35.825Z,3.80
2023-04-11T06:23:02.620Z,3.90
2023-04-11T06:25:29.448Z,4.00
2023-04-11T06:27:56.291Z,4.20
2023-04-11T06:30:23.171Z,4.20
2023-04-11T06:32:50.182Z,4.30
2023-04-11T06:35:17.120Z,4.40
2023-04-11T06:37:45.996Z,4.50
2023-04-11T06:40:13.056Z,4.60
2023-04-11T06:42:39.842Z,4.70
2023-04-11T06:45:07.101Z,4.80
2023-04-11T06:47:33.895Z,4.90
2023-04-11T06:50:00.731Z,5.00
2023-04-11T06:52:28.370Z,5.20
2023-04-11T06:54:55.227Z,5.20
2023-04-11T06:57:22.080Z,5.30
2023-04-11T06:59:48.948Z,5.40
2023-04-11T07:02:16.091Z,5.40
2023-04-11T07:04:43.066Z,5.50
2023-04-11T07:07:10.014Z,5.70
2023-04-11T07:09:36.853Z,5.70
2023-04-11T07:12:05.182Z,5.80
2023-04-11T07:14:32.107Z,5.90
2023-04-11T07:16:58.861Z,6.00
2023-04-11T07:19:25.614Z,6.10
2023-04-11T07:21:52.606Z,6.20
2023-04-11T07:24:21.051Z,6.30
2023-04-11T07:26:50.541Z,6.40
2023-04-11T07:29:17.463Z,6.50
2023-04-11T07:31:45.133Z,6.60
2023-04-11T07:34:12.110Z,6.80
2023-04-11T07:36:39.006Z,6.80
2023-04-11T07:39:09.306Z,6.90
2023-04-11T07:41:39.636Z,7.10
2023-04-11T07:44:07.604Z,7.20
2023-04-11T07:46:34.571Z,7.20
2023-04-11T07:49:01.383Z,7.30
2023-04-11T07:51:28.155Z,7.50
2023-04-11T07:53:55.103Z,7.60
2023-04-11T07:56:22.226Z,7.80
2023-04-11T07:58:49.030Z,8.00
2023-04-11T08:01:26.866Z,8.00
2023-04-11T08:03:54.991Z,8.10
2023-04-11T08:06:22.443Z,8.00
2023-04-11T08:08:50.669Z,8.10
2023-04-11T08:11:17.476Z,8.10
2023-04-11T08:13:44.232Z,8.20
2023-04-11T08:16:12.412Z,8.20
2023-04-11T08:18:42.446Z,8.30
2023-04-11T08:21:12.684Z,8.40
2023-04-11T08:23:42.167Z,8.40
2023-04-11T08:26:10.712Z,8.60
2023-04-11T08:28:37.613Z,8.70
2023-04-11T08:31:05.531Z,8.80
2023-04-11T08:33:32.502Z,8.90
2023-04-11T08:35:59.399Z,9.00
2023-04-11T08:38:26.220Z,9.00
2023-04-11T08:40:53.169Z,9.00
2023-04-11T08:43:20.110Z,9.00
2023-04-11T08:45:47.196Z,9.10
2023-04-11T08:48:14.093Z,9.10
2023-04-11T08:50:42.346Z,9.10
2023-04-11T08:53:09.571Z,9.10
2023-04-11T08:55:47.561Z,9.10
2023-04-11T08:58:14.813Z,9.20
2023-04-11T09:00:41.688Z,9.00
2023-04-11T09:03:10.199Z,9.10
2023-04-11T09:05:41.133Z,9.20
2023-04-11T09:08:09.874Z,9.20
2023-04-11T09:10:38.060Z,9.10
2023-04-11T09:13:24.632Z,9.10
2023-04-11T09:16:17.422Z,9.10
2023-04-11T09:18:46.642Z,9.00
2023-04-11T09:21:15.605Z,9.10
2023-04-11T09:23:43.290Z,9.10
2023-04-11T09:26:12.365Z,9.10
2023-04-11T09:28:52.800Z,9.20
2023-04-11T09:31:39.365Z,9.30
2023-04-11T09:34:06.873Z,9.40
2023-04-11T09:36:33.814Z,9.40
2023-04-11T09:39:02.211Z,9.50
2023-04-11T09:41:38.968Z,9.70
2023-04-11T09:44:05.864Z,9.90
2023-04-11T09:46:33.064Z,10.00
2023-04-11T09:49:01.790Z,10.10
2023-04-11T09:53:40.494Z,10.20
2023-04-11T09:54:16.305Z,10.20
2023-04-11T09:56:43.179Z,10.30
2023-04-11T09:59:10.242Z,10.40
2023-04-11T10:01:38.817Z,10.50
2023-04-11T10:04:05.650Z,10.50
2023-04-11T10:07:02.102Z,10.60
2023-04-11T10:09:31.316Z,10.60
2023-04-11T10:11:58.295Z,10.70
2023-04-11T10:14:37.468Z,10.80
2023-04-11T10:17:14.913Z,10.90
2023-04-11T10:19:44.240Z,10.90
2023-04-11T10:22:31.782Z,11.00
2023-04-11T10:25:20.121Z,11.00
2023-04-11T10:27:53.562Z,11.00
2023-04-11T10:31:00.039Z,11.10
2023-04-11T10:33:27.763Z,10.90
2023-04-11T10:36:11.520Z,10.70
2023-04-11T10:38:42.031Z,10.70
2023-04-11T10:41:16.494Z,10.70
2023-04-11T10:43:43.615Z,10.60
2023-04-11T10:46:26.560Z,10.80
2023-04-11T10:49:04.519Z,11.10
2023-04-11T10:51:33.391Z,11.30
2023-04-11T10:54:00.758Z,11.50
2023-04-11T10:56:43.322Z,11.90
2023-04-11T10:59:32.080Z,11.80
2023-04-11T11:02:02.690Z,12.00
2023-04-11T11:04:37.865Z,12.30
2023-04-11T11:07:07.267Z,12.30
2023-04-11T11:09:34.995Z,12.30
2023-04-11T11:12:12.680Z,11.90
2023-04-11T11:14:41.689Z,11.90
2023-04-11T11:17:09.064Z,12.10
2023-04-11T11:19:36.278Z,12.30
2023-04-11T11:22:04.680Z,12.50
2023-04-11T11:24:31.675Z,12.60
2023-04-11T11:26:58.859Z,12.70
2023-04-11T11:29:37.805Z,12.90
2023-04-11T11:32:06.438Z,12.90
2023-04-11T11:34:35.036Z,13.00
2023-04-11T11:37:06.539Z,13.00
2023-04-11T11:39:34.473Z,13.10
2023-04-11T11:42:01.702Z,12.90
2023-04-11T11:44:30.128Z,12.80
2023-04-11T11:47:12.818Z,13.00
2023-04-11T11:49:46.683Z,13.00
2023-04-11T11:52:31.797Z,12.80
2023-04-11T11:54:58.968Z,12.90
2023-04-11T11:57:26.104Z,13.30
2023-04-11T11:59:57.211Z,13.40
2023-04-11T12:02:27.851Z,13.30
2023-04-11T12:05:02.893Z,13.20
2023-04-11T12:07:34.195Z,13.30
2023-04-11T12:10:02.633Z,13.50
2023-04-11T12:12:36.973Z,13.70
2023-04-11T12:15:14.372Z,13.60
2023-04-11T12:17:41.439Z,13.70
2023-04-11T12:20:10.708Z,13.80
2023-04-11T12:22:38.419Z,14.10
2023-04-11T12:25:10.519Z,14.10
2023-04-11T12:27:38.565Z,13.90
2023-04-11T12:30:06.093Z,13.70
2023-04-11T12:32:34.196Z,13.70
2023-04-11T12:35:02.122Z,13.80
2023-04-11T12:37:29.236Z,14.10
2023-04-11T12:39:55.999Z,14.00
2023-04-11T12:42:26.779Z,14.20
2023-04-11T12:44:54.309Z,14.20
2023-04-11T12:47:21.271Z,14.40
2023-04-11T12:49:48.082Z,14.60
2023-04-11T12:52:14.858Z,14.40
2023-04-11T12:54:41.618Z,14.30
2023-04-11T12:57:12.408Z,14.40
2023-04-11T12:59:39.548Z,14.60
2023-04-11T13:02:06.607Z,14.80
2023-04-11T13:04:33.643Z,15.00
2023-04-11T13:07:01.605Z,15.20
2023-04-11T13:09:32.435Z,15.20
2023-04-11T13:12:01.863Z,15.40
2023-04-11T13:14:29.284Z,15.40
2023-04-11T13:16:56.768Z,15.10
2023-04-11T13:19:24.072Z,15.20
2023-04-11T13:21:50.936Z,15.30
2023-04-11T13:24:17.766Z,15.40
2023-04-11T13:26:45.236Z,15.40
2023-04-11T13:29:12.263Z,15.30
2023-04-11T13:31:39.092Z,15.30
2023-04-11T13:34:06.206Z,15.20
2023-04-11T13:36:33.066Z,15.20
2023-04-11T13:38:59.935Z,15.30
2023-04-11T13:41:26.927Z,15.40
2023-04-11T13:43:54.079Z,15.60
2023-04-11T13:46:21.856Z,15.70
2023-04-11T13:48:48.841Z,15.80
2023-04-11T13:51:15.936Z,15.80
2023-04-11T13:53:42.744Z,15.70
2023-04-11T13:56:10.629Z,15.50
2023-04-11T13:58:38.309Z,15.30
2023-04-11T14:01:06.748Z,15.20
2023-04-11T14:03:33.995Z,15.30
2023-04-11T14:06:01.615Z,15.20
2023-04-11T14:08:29.104Z,15.30
2023-04-11T14:10:56.475Z,15.30
2023-04-11T14:13:23.516Z,15.20
2023-04-11T14:16:04.802Z,15.00
2023-04-11T14:18:34.742Z,15.00
2023-04-11T14:21:01.948Z,14.90
2023-04-11T14:23:29.440Z,14.90
2023-04-11T14:25:56.848Z,14.70
2023-04-11T14:28:26.486Z,14.60
2023-04-11T14:30:54.119Z,14.60
2023-04-11T14:33:21.132Z,14.60
2023-04-11T14:35:48.080Z,14.70
2023-04-11T14:38:15.863Z,14.70
2023-04-11T14:40:42.969Z,14.60
2023-04-11T14:43:09.816Z,14.60
2023-04-11T14:45:36.976Z,14.70
2023-04-11T14:48:04.029Z,14.80
2023-04-11T14:50:31.399Z,14.80
2023-04-11T14:52:58.342Z,15.00
2023-04-11T14:55:25.234Z,15.00
2023-04-11T14:57:54.769Z,14.70
2023-04-11T15:00:22.537Z,14.70
2023-04-11T15:02:56.277Z,14.50
2023-04-11T15:05:24.174Z,14.10
2023-04-11T15:07:52.937Z,14.10
2023-04-11T15:10:22.034Z,14.00
2023-04-11T15:12:49.213Z,13.50
2023-04-11T15:15:16.589Z,13.40
2023-04-11T15:17:49.186Z,13.20
2023-04-11T15:20:16.936Z,13.10
2023-04-11T15:22:45.514Z,13.10
2023-04-11T15:25:15.114Z,13.10
2023-04-11T15:27:42.253Z,13.10
2023-04-11T15:30:10.116Z,13.00
2023-04-11T15:32:42.588Z,13.00
2023-04-11T15:35:10.152Z,12.90
2023-04-11T15:37:37.302Z,12.80
2023-04-11T15:40:06.325Z,12.80
2023-04-11T15:42:35.431Z,12.70
2023-04-11T15:45:02.756Z,12.70
2023-04-11T15:47:30.341Z,12.60
2023-04-11T15:49:58.995Z,12.60
2023-04-11T15:52:26.429Z,12.60
2023-04-11T15:54:53.340Z,12.50
2023-04-11T15:57:20.197Z,12.40
2023-04-11T15:59:46.947Z,12.30
2023-04-11T16:02:15.195Z,12.20
2023-04-11T16:04:46.308Z,12.10
2023-04-11T16:07:18.259Z,12.00
2023-04-11T16:09:46.406Z,12.00
2023-04-11T16:12:13.412Z,11.90
2023-04-11T16:14:40.476Z,11.90
2023-04-11T16:17:07.291Z,11.70
2023-04-11T16:19:34.079Z,11.60
2023-04-11T16:22:00.907Z,11.30
2023-04-11T16:24:31.191Z,11.20
2023-04-11T16:26:58.431Z,11.20
2023-04-11T16:29:25.433Z,11.20
2023-04-11T16:31:52.298Z,11.20
2023-04-11T16:34:19.196Z,11.10
2023-04-11T16:36:46.024Z,11.20
2023-04-11T16:39:12.984Z,11.20
2023-04-11T16:41:39.805Z,11.20
2023-04-11T16:44:11.532Z,11.10
2023-04-11T16:46:38.836Z,11.10
2023-04-11T16:49:05.705Z,11.10
2023-04-11T16:51:33.042Z,11.10
2023-04-11T16:54:00.030Z,11.00
2023-04-11T16:56:29.017Z,11.00
2023-04-11T16:58:56.972Z,11.00
2023-04-11T17:01:23.921Z,11.00
2023-04-11T17:03:52.436Z,10.90
2023-04-11T17:06:19.549Z,10.80
2023-04-11T17:08:46.491Z,10.70
2023-04-11T17:11:13.622Z,10.70
2023-04-11T17:13:42.059Z,10.60
2023-04-11T17:16:10.448Z,10.60
2023-04-11T17:18:40.816Z,10.60
2023-04-11T17:21:07.732Z,10.60
2023-04-11T17:23:42.517Z,10.60
2023-04-11T17:26:10.776Z,10.50
2023-04-11T17:28:38.359Z,10.40
2023-04-11T17:31:16.106Z,10.40
2023-04-11T17:33:43.101Z,10.40
2023-04-11T17:36:12.450Z,10.30
2023-04-11T17:38:40.621Z,10.20
2023-04-11T17:41:14.523Z,10.30
2023-04-11T17:43:42.601Z,10.20
2023-04-11T17:46:09.802Z,10.20
2023-04-11T17:48:36.853Z,10.10
2023-04-11T17:51:05.558Z,10.10
2023-04-11T17:53:32.885Z,10.10
2023-04-11T17:56:04.529Z,10.00
2023-04-11T17:58:31.798Z,9.90
2023-04-11T18:00:58.747Z,9.70
2023-04-11T18:03:26.087Z,9.40
2023-04-11T18:05:54.573Z,9.60
2023-04-11T18:08:29.924Z,9.50
2023-04-11T18:11:04.331Z,8.90
2023-04-11T18:13:31.660Z,8.30
2023-04-11T18:15:58.805Z,7.90
2023-04-11T18:18:25.978Z,8.10
2023-04-11T18:20:52.871Z,8.10
2023-04-11T18:23:19.667Z,8.20
2023-04-11T18:25:46.444Z,8.10
2023-04-11T18:28:13.227Z,8.20
2023-04-11T18:30:40.038Z,7.40
2023-04-11T18:33:06.983Z,7.00
2023-04-11T18:35:33.844Z,6.80
2023-04-11T18:38:00.950Z,7.10
2023-04-11T18:40:28.367Z,6.60
2023-04-11T18:42:56.408Z,6.60
2023-04-11T18:45:24.032Z,6.90
2023-04-11T18:47:51.223Z,6.40
2023-04-11T18:50:19.048Z,6.40
2023-04-11T18:52:47.133Z,6.60
2023-04-11T18:55:15.086Z,6.20
2023-04-11T18:57:46.163Z,6.40
2023-04-11T19:00:18.430Z,6.40
2023-04-11T19:02:46.925Z,6.10
2023-04-11T19:05:14.636Z,5.40
2023-04-11T19:07:42.776Z,5.10
2023-04-11T19:10:11.238Z,5.60
2023-04-11T19:12:38.573Z,5.80
2023-04-11T19:15:07.985Z,6.20
2023-04-11T19:17:38.870Z,6.20
2023-04-11T19:20:13.107Z,5.80
2023-04-11T19:22:41.060Z,5.80
2023-04-11T19:25:11.622Z,5.40
2023-04-11T19:27:41.221Z,5.60
2023-04-11T19:30:09.272Z,5.40
2023-04-11T19:32:38.748Z,5.40
2023-04-11T19:35:08.663Z,5.10
2023-04-11T19:37:36.258Z,5.10
2023-04-11T19:40:07.434Z,5.20
2023-04-11T19:42:37.039Z,5.10
2023-04-11T19:45:05.062Z,4.70
2023-04-11T19:47:32.664Z,4.80
2023-04-11T19:50:00.974Z,4.80
2023-04-11T19:52:28.745Z,4.60
2023-04-11T19:54:56.554Z,4.50
2023-04-11T19:57:26.411Z,4.50
2023-04-11T19:59:53.482Z,4.60
2023-04-11T20:02:21.231Z,4.70
2023-04-11T20:04:49.470Z,4.50
2023-04-11T20:07:16.622Z,4.90
2023-04-11T20:09:43.507Z,4.90
2023-04-11T20:12:10.448Z,4.90
2023-04-11T20:14:38.325Z,5.00
2023-04-11T20:17:06.649Z,4.90
2023-04-11T20:19:33.522Z,4.90
2023-04-11T20:22:03.249Z,4.60
2023-04-11T20:24:30.038Z,4.50
2023-04-11T20:26:57.121Z,4.50
2023-04-11T20:31:57.523Z,4.60
2023-04-11T20:34:24.305Z,4.30
2023-04-11T20:36:51.155Z,4.30
2023-04-11T20:39:17.921Z,4.20
2023-04-11T20:41:44.670Z,4.60
2023-04-11T20:44:11.442Z,4.30
2023-04-11T20:46:39.893Z,4.00
2023-04-11T20:49:07.009Z,4.20
2023-04-11T20:51:34.663Z,4.50
2023-04-11T20:54:01.701Z,4.40
2023-04-11T20:56:35.053Z,4.20
2023-04-11T20:59:02.450Z,4.30
2023-04-11T21:01:33.687Z,4.50
2023-04-11T21:04:04.142Z,4.40
2023-04-11T21:06:31.853Z,4.50
2023-04-11T21:09:00.144Z,4.50
2023-04-11T21:11:27.189Z,4.70
2023-04-11T21:13:54.779Z,4.20
2023-04-11T21:16:22.205Z,4.00
2023-04-11T21:18:49.242Z,4.20
2023-04-11T21:21:16.410Z,4.20
2023-04-11T21:23:43.859Z,4.40
2023-04-11T21:26:11.772Z,4.60
2023-04-11T21:28:38.696Z,4.70
2023-04-11T21:31:05.844Z,4.80
2023-04-11T21:33:32.707Z,4.80
2023-04-11T21:35:59.599Z,4.70
2023-04-11T21:38:26.410Z,4.80
2023-04-11T21:40:53.217Z,4.90
2023-04-11T21:43:19.961Z,4.80
2023-04-11T21:45:46.835Z,5.00
2023-04-11T21:48:13.661Z,5.10
2023-04-11T21:50:40.730Z,5.20
2023-04-11T21:53:07.523Z,5.70
2023-04-11T21:55:34.496Z,6.50
2023-04-11T21:58:01.284Z,7.50
2023-04-11T22:00:28.056Z,7.20
2023-04-11T22:02:54.976Z,6.90
2023-04-11T22:05:22.299Z,7.40
2023-04-11T22:07:50.647Z,7.10
2023-04-11T22:10:22.579Z,7.20
2023-04-11T22:12:50.231Z,7.10
2023-04-11T22:15:18.465Z,7.10
2023-04-11T22:17:50.303Z,6.90
2023-04-11T22:20:18.188Z,6.80
2023-04-11T22:22:45.092Z,6.90
2023-04-11T22:25:12.046Z,6.70
2023-04-11T22:27:39.053Z,6.50
2023-04-11T22:30:07.214Z,7.20
2023-04-11T22:32:34.363Z,7.20
2023-04-11T22:35:01.328Z,7.10
2023-04-11T22:37:28.138Z,7.30
2023-04-11T22:39:55.113Z,7.40
2023-04-11T22:42:22.126Z,7.20
2023-04-11T22:44:48.891Z,7.20
2023-04-11T22:47:17.011Z,7.20
2023-04-11T22:49:44.966Z,7.20
2023-04-11T22:52:14.431Z,7.10
2023-04-11T22:54:42.781Z,7.00
2023-04-11T22:57:10.024Z,7.00
2023-04-11T22:59:37.038Z,7.00
2023-04-11T23:02:04.014Z,6.80
2023-04-11T23:04:32.314Z,6.70
2023-04-11T23:06:59.563Z,6.40
2023-04-11T23:09:27.121Z,6.50
2023-04-11T23:11:53.874Z,6.30
2023-04-11T23:14:21.354Z,6.10
2023-04-11T23:16:48.616Z,6.20
2023-04-11T23:19:15.720Z,6.20
2023-04-11T23:21:43.037Z,6.20
2023-04-11T23:24:10.044Z,6.20
2023-04-11T23:26:37.170Z,6.20
2023-04-11T23:29:04.497Z,6.10
2023-04-11T23:31:32.638Z,6.20
2023-04-11T23:34:00.615Z,6.20
2023-04-11T23:36:28.078Z,6.30
2023-04-11T23:38:55.046Z,6.40
2023-04-11T23:41:21.916Z,6.40
2023-04-11T23:43:48.831Z,6.30
2023-04-11T23:46:18.179Z,6.40
2023-04-11T23:48:46.955Z,6.60
2023-04-11T23:51:14.149Z,6.40
2023-04-11T23:53:42.554Z,6.40
2023-04-11T23:56:09.749Z,6.40
2023-04-11T23:58:36.697Z,6.50
